sensor_id;sensor_type;location;lat;lon;timestamp;P1;durP1;ratioP1;P2;durP2;ratioP2
11533;SDS011;5823;50.588;8.462;2023-08-07T00:02:00;0.00;;;0.00;;
11533;SDS011;5823;50.588;8.462;2023-08-07T00:04:31;0.00;;;0.00;;
11533;SDS011;5823;50.588;8.462;2023-08-07T00:06:57;0.00;;;0.00;;
11533;SDS011;5823;50.588;8.462;2023-08-07T00:09:24;0.00;;;0.00;;
11533;SDS011;5823;50.588;8.462;2023-08-07T00:11:50;0.00;;;0.00;;
11533;SDS011;5823;50.588;8.462;2023-08-07T00:14:16;0.00;;;0.00;;
11533;SDS011;5823;50.588;8.462;2023-08-07T00:16:44;0.00;;;0.00;;
11533;SDS011;5823;50.588;8.462;2023-08-07T00:19:11;0.00;;;0.00;;
11533;SDS011;5823;50.588;8.462;2023-08-07T00:21:37;0.10;;;0.10;;
11533;SDS011;5823;50.588;8.462;2023-08-07T00:24:04;0.00;;;0.00;;
11533;SDS011;5823;50.588;8.462;2023-08-07T00:26:30;0.30;;;0.10;;
11533;SDS011;5823;50.588;8.462;2023-08-07T00:28:57;0.00;;;0.00;;
11533;SDS011;5823;50.588;8.462;2023-08-07T00:31:23;0.10;;;0.10;;
11533;SDS011;5823;50.588;8.462;2023-08-07T00:33:51;0.00;;;0.00;;
11533;SDS011;5823;50.588;8.462;2023-08-07T00:36:19;0.00;;;0.00;;
11533;SDS011;5823;50.588;8.462;2023-08-07T00:38:45;0.00;;;0.00;;
11533;SDS011;5823;50.588;8.462;2023-08-07T00:44:03;0.52;;;0.10;;
11533;SDS011;5823;50.588;8.462;2023-08-07T00:46:31;0.20;;;0.08;;
11533;SDS011;5823;50.588;8.462;2023-08-07T00:48:58;0.10;;;0.10;;
11533;SDS011;5823;50.588;8.462;2023-08-07T00:51:25;0.10;;;0.10;;
11533;SDS011;5823;50.588;8.462;2023-08-07T00:53:51;0.00;;;0.00;;
11533;SDS011;5823;50.588;8.462;2023-08-07T00:56:18;0.00;;;0.00;;
11533;SDS011;5823;50.588;8.462;2023-08-07T00:58:44;0.03;;;0.03;;
11533;SDS011;5823;50.588;8.462;2023-08-07T01:01:11;0.10;;;0.10;;
11533;SDS011;5823;50.588;8.462;2023-08-07T01:03:38;0.10;;;0.10;;
11533;SDS011;5823;50.588;8.462;2023-08-07T01:06:05;0.10;;;0.10;;
11533;SDS011;5823;50.588;8.462;2023-08-07T01:08:32;0.10;;;0.10;;
11533;SDS011;5823;50.588;8.462;2023-08-07T01:11:05;0.00;;;0.00;;
11533;SDS011;5823;50.588;8.462;2023-08-07T01:13:34;0.00;;;0.00;;
11533;SDS011;5823;50.588;8.462;2023-08-07T01:16:04;0.03;;;0.03;;
11533;SDS011;5823;50.588;8.462;2023-08-07T01:21:26;0.15;;;0.15;;
11533;SDS011;5823;50.588;8.462;2023-08-07T01:23:53;0.10;;;0.10;;
11533;SDS011;5823;50.588;8.462;2023-08-07T01:26:20;0.20;;;0.20;;
11533;SDS011;5823;50.588;8.462;2023-08-07T01:28:48;0.03;;;0.03;;
11533;SDS011;5823;50.588;8.462;2023-08-07T01:31:16;0.05;;;0.05;;
11533;SDS011;5823;50.588;8.462;2023-08-07T01:33:47;0.08;;;0.08;;
11533;SDS011;5823;50.588;8.462;2023-08-07T01:36:14;0.40;;;0.10;;
11533;SDS011;5823;50.588;8.462;2023-08-07T01:38:41;0.00;;;0.00;;
11533;SDS011;5823;50.588;8.462;2023-08-07T01:41:09;0.00;;;0.00;;
11533;SDS011;5823;50.588;8.462;2023-08-07T01:49:19;0.00;;;0.00;;
11533;SDS011;5823;50.588;8.462;2023-08-07T01:51:46;0.00;;;0.00;;
11533;SDS011;5823;50.588;8.462;2023-08-07T01:54:12;0.00;;;0.00;;
11533;SDS011;5823;50.588;8.462;2023-08-07T01:56:40;0.10;;;0.10;;
11533;SDS011;5823;50.588;8.462;2023-08-07T01:59:06;0.10;;;0.10;;
11533;SDS011;5823;50.588;8.462;2023-08-07T02:01:32;0.20;;;0.10;;
11533;SDS011;5823;50.588;8.462;2023-08-07T02:03:59;0.00;;;0.00;;
11533;SDS011;5823;50.588;8.462;2023-08-07T02:06:25;0.00;;;0.00;;
11533;SDS011;5823;50.588;8.462;2023-08-07T02:08:51;0.10;;;0.10;;
11533;SDS011;5823;50.588;8.462;2023-08-07T02:11:17;0.05;;;0.05;;
11533;SDS011;5823;50.588;8.462;2023-08-07T02:13:45;0.10;;;0.10;;
11533;SDS011;5823;50.588;8.462;2023-08-07T02:16:11;0.05;;;0.05;;
11533;SDS011;5823;50.588;8.462;2023-08-07T02:18:38;0.00;;;0.00;;
11533;SDS011;5823;50.588;8.462;2023-08-07T02:21:04;0.00;;;0.00;;
11533;SDS011;5823;50.588;8.462;2023-08-07T02:23:32;0.10;;;0.10;;
11533;SDS011;5823;50.588;8.462;2023-08-07T02:25:59;0.00;;;0.00;;
11533;SDS011;5823;50.588;8.462;2023-08-07T02:28:25;0.08;;;0.08;;
11533;SDS011;5823;50.588;8.462;2023-08-07T02:30:54;0.00;;;0.00;;
11533;SDS011;5823;50.588;8.462;2023-08-07T02:33:20;0.28;;;0.10;;
11533;SDS011;5823;50.588;8.462;2023-08-07T02:35:46;0.00;;;0.00;;
11533;SDS011;5823;50.588;8.462;2023-08-07T02:38:13;0.10;;;0.10;;
11533;SDS011;5823;50.588;8.462;2023-08-07T02:40:39;0.00;;;0.00;;
11533;SDS011;5823;50.588;8.462;2023-08-07T02:43:05;0.10;;;0.10;;
11533;SDS011;5823;50.588;8.462;2023-08-07T02:45:32;0.10;;;0.10;;
11533;SDS011;5823;50.588;8.462;2023-08-07T02:48:01;0.10;;;0.10;;
11533;SDS011;5823;50.588;8.462;2023-08-07T02:50:27;0.00;;;0.00;;
11533;SDS011;5823;50.588;8.462;2023-08-07T02:52:57;0.00;;;0.00;;
11533;SDS011;5823;50.588;8.462;2023-08-07T02:55:23;0.05;;;0.05;;
11533;SDS011;5823;50.588;8.462;2023-08-07T02:57:50;0.00;;;0.00;;
11533;SDS011;5823;50.588;8.462;2023-08-07T03:00:20;0.00;;;0.00;;
11533;SDS011;5823;50.588;8.462;2023-08-07T03:02:47;0.00;;;0.00;;
11533;SDS011;5823;50.588;8.462;2023-08-07T03:05:14;0.10;;;0.00;;
11533;SDS011;5823;50.588;8.462;2023-08-07T03:07:41;0.20;;;0.10;;
11533;SDS011;5823;50.588;8.462;2023-08-07T03:10:07;0.00;;;0.00;;
11533;SDS011;5823;50.588;8.462;2023-08-07T03:12:34;0.00;;;0.00;;
11533;SDS011;5823;50.588;8.462;2023-08-07T03:15:00;0.00;;;0.00;;
11533;SDS011;5823;50.588;8.462;2023-08-07T03:17:26;0.00;;;0.00;;
11533;SDS011;5823;50.588;8.462;2023-08-07T03:19:53;0.00;;;0.00;;
11533;SDS011;5823;50.588;8.462;2023-08-07T03:22:21;0.00;;;0.00;;
11533;SDS011;5823;50.588;8.462;2023-08-07T03:24:47;0.10;;;0.10;;
11533;SDS011;5823;50.588;8.462;2023-08-07T03:27:13;0.00;;;0.00;;
11533;SDS011;5823;50.588;8.462;2023-08-07T03:30:04;0.00;;;0.00;;
11533;SDS011;5823;50.588;8.462;2023-08-07T03:32:31;0.00;;;0.00;;
11533;SDS011;5823;50.588;8.462;2023-08-07T03:34:57;0.00;;;0.00;;
11533;SDS011;5823;50.588;8.462;2023-08-07T03:37:25;0.00;;;0.00;;
11533;SDS011;5823;50.588;8.462;2023-08-07T03:42:44;0.00;;;0.00;;
11533;SDS011;5823;50.588;8.462;2023-08-07T03:45:10;0.00;;;0.00;;
11533;SDS011;5823;50.588;8.462;2023-08-07T03:47:37;0.00;;;0.00;;
11533;SDS011;5823;50.588;8.462;2023-08-07T03:50:03;0.00;;;0.00;;
11533;SDS011;5823;50.588;8.462;2023-08-07T03:52:31;0.10;;;0.10;;
11533;SDS011;5823;50.588;8.462;2023-08-07T03:54:58;0.03;;;0.03;;
11533;SDS011;5823;50.588;8.462;2023-08-07T03:57:24;0.03;;;0.03;;
11533;SDS011;5823;50.588;8.462;2023-08-07T03:59:51;0.10;;;0.10;;
11533;SDS011;5823;50.588;8.462;2023-08-07T04:02:19;0.15;;;0.10;;
11533;SDS011;5823;50.588;8.462;2023-08-07T04:04:45;0.10;;;0.10;;
11533;SDS011;5823;50.588;8.462;2023-08-07T04:07:12;0.00;;;0.00;;
11533;SDS011;5823;50.588;8.462;2023-08-07T04:09:39;0.08;;;0.08;;
11533;SDS011;5823;50.588;8.462;2023-08-07T04:12:06;0.20;;;0.20;;
11533;SDS011;5823;50.588;8.462;2023-08-07T04:14:33;0.10;;;0.10;;
11533;SDS011;5823;50.588;8.462;2023-08-07T04:16:59;0.00;;;0.00;;
11533;SDS011;5823;50.588;8.462;2023-08-07T04:19:25;0.30;;;0.10;;
11533;SDS011;5823;50.588;8.462;2023-08-07T04:21:56;0.20;;;0.08;;
11533;SDS011;5823;50.588;8.462;2023-08-07T04:24:22;0.15;;;0.15;;
11533;SDS011;5823;50.588;8.462;2023-08-07T04:26:50;0.10;;;0.10;;
11533;SDS011;5823;50.588;8.462;2023-08-07T04:29:16;0.00;;;0.00;;
11533;SDS011;5823;50.588;8.462;2023-08-07T04:31:43;0.10;;;0.10;;
11533;SDS011;5823;50.588;8.462;2023-08-07T04:34:09;0.10;;;0.10;;
11533;SDS011;5823;50.588;8.462;2023-08-07T04:36:35;0.00;;;0.00;;
11533;SDS011;5823;50.588;8.462;2023-08-07T04:39:02;0.17;;;0.17;;
11533;SDS011;5823;50.588;8.462;2023-08-07T04:41:29;0.20;;;0.20;;
11533;SDS011;5823;50.588;8.462;2023-08-07T04:43:56;0.17;;;0.17;;
11533;SDS011;5823;50.588;8.462;2023-08-07T04:46:23;0.10;;;0.10;;
11533;SDS011;5823;50.588;8.462;2023-08-07T04:48:49;0.00;;;0.00;;
11533;SDS011;5823;50.588;8.462;2023-08-07T04:51:15;0.00;;;0.00;;
11533;SDS011;5823;50.588;8.462;2023-08-07T04:53:46;0.03;;;0.03;;
11533;SDS011;5823;50.588;8.462;2023-08-07T04:56:15;0.47;;;0.10;;
11533;SDS011;5823;50.588;8.462;2023-08-07T04:58:42;0.10;;;0.10;;
11533;SDS011;5823;50.588;8.462;2023-08-07T05:01:09;0.17;;;0.17;;
11533;SDS011;5823;50.588;8.462;2023-08-07T05:03:36;0.08;;;0.08;;
11533;SDS011;5823;50.588;8.462;2023-08-07T05:06:02;0.10;;;0.10;;
11533;SDS011;5823;50.588;8.462;2023-08-07T05:08:29;0.10;;;0.10;;
11533;SDS011;5823;50.588;8.462;2023-08-07T05:10:55;0.10;;;0.10;;
11533;SDS011;5823;50.588;8.462;2023-08-07T05:13:21;0.10;;;0.10;;
11533;SDS011;5823;50.588;8.462;2023-08-07T05:15:48;0.00;;;0.00;;
11533;SDS011;5823;50.588;8.462;2023-08-07T05:18:16;0.10;;;0.10;;
11533;SDS011;5823;50.588;8.462;2023-08-07T05:20:42;0.00;;;0.00;;
11533;SDS011;5823;50.588;8.462;2023-08-07T05:23:09;0.00;;;0.00;;
11533;SDS011;5823;50.588;8.462;2023-08-07T05:25:36;0.00;;;0.00;;
11533;SDS011;5823;50.588;8.462;2023-08-07T05:28:03;0.08;;;0.08;;
11533;SDS011;5823;50.588;8.462;2023-08-07T05:30:30;0.10;;;0.10;;
11533;SDS011;5823;50.588;8.462;2023-08-07T05:32:56;0.00;;;0.00;;
11533;SDS011;5823;50.588;8.462;2023-08-07T05:35:24;0.10;;;0.10;;
11533;SDS011;5823;50.588;8.462;2023-08-07T05:37:51;0.17;;;0.10;;
11533;SDS011;5823;50.588;8.462;2023-08-07T05:40:17;0.10;;;0.10;;
11533;SDS011;5823;50.588;8.462;2023-08-07T05:42:43;0.25;;;0.13;;
11533;SDS011;5823;50.588;8.462;2023-08-07T05:45:10;0.10;;;0.10;;
11533;SDS011;5823;50.588;8.462;2023-08-07T05:47:36;0.00;;;0.00;;
11533;SDS011;5823;50.588;8.462;2023-08-07T05:50:04;0.00;;;0.00;;
11533;SDS011;5823;50.588;8.462;2023-08-07T05:52:32;0.00;;;0.00;;
11533;SDS011;5823;50.588;8.462;2023-08-07T05:54:59;0.03;;;0.03;;
11533;SDS011;5823;50.588;8.462;2023-08-07T05:57:25;0.10;;;0.10;;
11533;SDS011;5823;50.588;8.462;2023-08-07T05:59:51;0.00;;;0.00;;
11533;SDS011;5823;50.588;8.462;2023-08-07T06:02:18;0.10;;;0.10;;
11533;SDS011;5823;50.588;8.462;2023-08-07T06:04:44;0.20;;;0.20;;
11533;SDS011;5823;50.588;8.462;2023-08-07T06:07:11;0.00;;;0.00;;
11533;SDS011;5823;50.588;8.462;2023-08-07T06:09:38;0.10;;;0.10;;
11533;SDS011;5823;50.588;8.462;2023-08-07T06:12:05;0.10;;;0.08;;
11533;SDS011;5823;50.588;8.462;2023-08-07T06:14:31;0.15;;;0.08;;
11533;SDS011;5823;50.588;8.462;2023-08-07T06:16:58;0.00;;;0.00;;
11533;SDS011;5823;50.588;8.462;2023-08-07T06:19:26;0.00;;;0.00;;
11533;SDS011;5823;50.588;8.462;2023-08-07T06:21:53;0.10;;;0.10;;
11533;SDS011;5823;50.588;8.462;2023-08-07T06:24:20;0.00;;;0.00;;
11533;SDS011;5823;50.588;8.462;2023-08-07T06:26:47;0.10;;;0.10;;
11533;SDS011;5823;50.588;8.462;2023-08-07T06:29:14;0.10;;;0.10;;
11533;SDS011;5823;50.588;8.462;2023-08-07T06:31:40;0.10;;;0.10;;
11533;SDS011;5823;50.588;8.462;2023-08-07T06:34:06;0.10;;;0.10;;
11533;SDS011;5823;50.588;8.462;2023-08-07T06:36:32;0.00;;;0.00;;
11533;SDS011;5823;50.588;8.462;2023-08-07T06:38:59;0.00;;;0.00;;
11533;SDS011;5823;50.588;8.462;2023-08-07T06:41:25;0.10;;;0.10;;
11533;SDS011;5823;50.588;8.462;2023-08-07T06:43:53;0.10;;;0.10;;
11533;SDS011;5823;50.588;8.462;2023-08-07T06:46:19;0.10;;;0.10;;
11533;SDS011;5823;50.588;8.462;2023-08-07T06:48:49;0.00;;;0.00;;
11533;SDS011;5823;50.588;8.462;2023-08-07T06:51:15;0.00;;;0.00;;
11533;SDS011;5823;50.588;8.462;2023-08-07T06:53:42;0.17;;;0.17;;
11533;SDS011;5823;50.588;8.462;2023-08-07T06:56:08;0.00;;;0.00;;
11533;SDS011;5823;50.588;8.462;2023-08-07T06:58:34;0.00;;;0.00;;
11533;SDS011;5823;50.588;8.462;2023-08-07T07:01:02;0.13;;;0.10;;
11533;SDS011;5823;50.588;8.462;2023-08-07T07:03:28;0.40;;;0.40;;
11533;SDS011;5823;50.588;8.462;2023-08-07T07:05:55;0.10;;;0.10;;
11533;SDS011;5823;50.588;8.462;2023-08-07T07:08:21;0.10;;;0.10;;
11533;SDS011;5823;50.588;8.462;2023-08-07T07:10:48;0.20;;;0.20;;
11533;SDS011;5823;50.588;8.462;2023-08-07T07:13:14;0.13;;;0.13;;
11533;SDS011;5823;50.588;8.462;2023-08-07T07:15:41;0.30;;;0.30;;
11533;SDS011;5823;50.588;8.462;2023-08-07T07:18:08;0.10;;;0.10;;
11533;SDS011;5823;50.588;8.462;2023-08-07T07:20:34;0.00;;;0.00;;
11533;SDS011;5823;50.588;8.462;2023-08-07T07:23:01;0.08;;;0.08;;
11533;SDS011;5823;50.588;8.462;2023-08-07T07:25:27;0.20;;;0.20;;
11533;SDS011;5823;50.588;8.462;2023-08-07T07:27:53;0.40;;;0.40;;
11533;SDS011;5823;50.588;8.462;2023-08-07T07:30:20;0.30;;;0.30;;
11533;SDS011;5823;50.588;8.462;2023-08-07T07:32:49;0.20;;;0.20;;
11533;SDS011;5823;50.588;8.462;2023-08-07T07:35:17;0.20;;;0.20;;
11533;SDS011;5823;50.588;8.462;2023-08-07T07:37:44;0.30;;;0.30;;
11533;SDS011;5823;50.588;8.462;2023-08-07T07:40:10;0.30;;;0.30;;
11533;SDS011;5823;50.588;8.462;2023-08-07T07:42:36;0.10;;;0.10;;
11533;SDS011;5823;50.588;8.462;2023-08-07T07:45:03;0.55;;;0.38;;
11533;SDS011;5823;50.588;8.462;2023-08-07T07:47:30;0.60;;;0.50;;
11533;SDS011;5823;50.588;8.462;2023-08-07T07:50:04;0.25;;;0.25;;
11533;SDS011;5823;50.588;8.462;2023-08-07T07:52:32;0.55;;;0.55;;
11533;SDS011;5823;50.588;8.462;2023-08-07T07:54:58;0.40;;;0.40;;
11533;SDS011;5823;50.588;8.462;2023-08-07T07:57:25;1.95;;;0.65;;
11533;SDS011;5823;50.588;8.462;2023-08-07T07:59:51;0.30;;;0.30;;
11533;SDS011;5823;50.588;8.462;2023-08-07T08:02:17;0.40;;;0.32;;
11533;SDS011;5823;50.588;8.462;2023-08-07T08:04:44;0.30;;;0.30;;
11533;SDS011;5823;50.588;8.462;2023-08-07T08:07:10;0.28;;;0.28;;
11533;SDS011;5823;50.588;8.462;2023-08-07T08:09:39;0.10;;;0.10;;
11533;SDS011;5823;50.588;8.462;2023-08-07T08:12:06;0.30;;;0.22;;
11533;SDS011;5823;50.588;8.462;2023-08-07T08:14:33;0.20;;;0.20;;
11533;SDS011;5823;50.588;8.462;2023-08-07T08:16:59;0.20;;;0.17;;
11533;SDS011;5823;50.588;8.462;2023-08-07T08:19:25;0.20;;;0.20;;
11533;SDS011;5823;50.588;8.462;2023-08-07T08:21:52;0.17;;;0.17;;
11533;SDS011;5823;50.588;8.462;2023-08-07T08:24:22;0.13;;;0.13;;
11533;SDS011;5823;50.588;8.462;2023-08-07T08:26:50;0.15;;;0.15;;
11533;SDS011;5823;50.588;8.462;2023-08-07T08:29:16;0.03;;;0.03;;
11533;SDS011;5823;50.588;8.462;2023-08-07T08:31:43;0.10;;;0.10;;
11533;SDS011;5823;50.588;8.462;2023-08-07T08:34:09;0.13;;;0.10;;
11533;SDS011;5823;50.588;8.462;2023-08-07T08:36:35;0.10;;;0.10;;
11533;SDS011;5823;50.588;8.462;2023-08-07T08:39:02;0.10;;;0.10;;
11533;SDS011;5823;50.588;8.462;2023-08-07T08:41:30;0.10;;;0.10;;
11533;SDS011;5823;50.588;8.462;2023-08-07T08:43:58;0.15;;;0.15;;
11533;SDS011;5823;50.588;8.462;2023-08-07T08:46:25;0.10;;;0.10;;
11533;SDS011;5823;50.588;8.462;2023-08-07T08:48:56;0.20;;;0.20;;
11533;SDS011;5823;50.588;8.462;2023-08-07T08:51:23;0.13;;;0.13;;
11533;SDS011;5823;50.588;8.462;2023-08-07T08:56:43;0.20;;;0.20;;
11533;SDS011;5823;50.588;8.462;2023-08-07T08:59:11;0.17;;;0.17;;
11533;SDS011;5823;50.588;8.462;2023-08-07T09:01:37;0.20;;;0.20;;
11533;SDS011;5823;50.588;8.462;2023-08-07T09:04:04;0.10;;;0.10;;
11533;SDS011;5823;50.588;8.462;2023-08-07T09:06:31;0.10;;;0.10;;
11533;SDS011;5823;50.588;8.462;2023-08-07T09:08:57;0.32;;;0.20;;
11533;SDS011;5823;50.588;8.462;2023-08-07T09:11:24;0.10;;;0.10;;
11533;SDS011;5823;50.588;8.462;2023-08-07T09:13:52;0.10;;;0.10;;
11533;SDS011;5823;50.588;8.462;2023-08-07T09:16:22;0.13;;;0.13;;
11533;SDS011;5823;50.588;8.462;2023-08-07T09:18:50;0.00;;;0.00;;
11533;SDS011;5823;50.588;8.462;2023-08-07T09:21:18;0.10;;;0.10;;
11533;SDS011;5823;50.588;8.462;2023-08-07T09:23:44;0.20;;;0.20;;
11533;SDS011;5823;50.588;8.462;2023-08-07T09:26:11;0.82;;;0.28;;
11533;SDS011;5823;50.588;8.462;2023-08-07T09:28:37;0.30;;;0.30;;
11533;SDS011;5823;50.588;8.462;2023-08-07T09:31:05;0.10;;;0.10;;
11533;SDS011;5823;50.588;8.462;2023-08-07T09:33:34;0.10;;;0.10;;
11533;SDS011;5823;50.588;8.462;2023-08-07T09:36:01;0.20;;;0.20;;
11533;SDS011;5823;50.588;8.462;2023-08-07T09:38:28;0.08;;;0.08;;
11533;SDS011;5823;50.588;8.462;2023-08-07T09:40:56;0.20;;;0.20;;
11533;SDS011;5823;50.588;8.462;2023-08-07T09:43:23;0.20;;;0.20;;
11533;SDS011;5823;50.588;8.462;2023-08-07T09:45:49;0.30;;;0.20;;
11533;SDS011;5823;50.588;8.462;2023-08-07T09:48:23;0.10;;;0.10;;
11533;SDS011;5823;50.588;8.462;2023-08-07T09:50:51;0.10;;;0.10;;
11533;SDS011;5823;50.588;8.462;2023-08-07T09:53:17;0.25;;;0.25;;
11533;SDS011;5823;50.588;8.462;2023-08-07T09:55:43;0.10;;;0.10;;
11533;SDS011;5823;50.588;8.462;2023-08-07T09:58:11;0.25;;;0.22;;
11533;SDS011;5823;50.588;8.462;2023-08-07T10:00:37;0.30;;;0.30;;
11533;SDS011;5823;50.588;8.462;2023-08-07T10:03:03;0.40;;;0.30;;
11533;SDS011;5823;50.588;8.462;2023-08-07T10:05:30;0.20;;;0.20;;
11533;SDS011;5823;50.588;8.462;2023-08-07T10:07:58;0.38;;;0.38;;
11533;SDS011;5823;50.588;8.462;2023-08-07T10:10:24;0.22;;;0.22;;
11533;SDS011;5823;50.588;8.462;2023-08-07T10:12:51;0.10;;;0.10;;
11533;SDS011;5823;50.588;8.462;2023-08-07T10:15:18;0.40;;;0.30;;
11533;SDS011;5823;50.588;8.462;2023-08-07T10:17:45;0.17;;;0.17;;
11533;SDS011;5823;50.588;8.462;2023-08-07T10:20:11;0.35;;;0.20;;
11533;SDS011;5823;50.588;8.462;2023-08-07T10:22:38;0.20;;;0.20;;
11533;SDS011;5823;50.588;8.462;2023-08-07T10:25:06;0.20;;;0.20;;
11533;SDS011;5823;50.588;8.462;2023-08-07T10:27:34;0.30;;;0.30;;
11533;SDS011;5823;50.588;8.462;2023-08-07T10:30:02;0.22;;;0.22;;
11533;SDS011;5823;50.588;8.462;2023-08-07T10:32:30;0.30;;;0.30;;
11533;SDS011;5823;50.588;8.462;2023-08-07T10:34:57;0.13;;;0.13;;
11533;SDS011;5823;50.588;8.462;2023-08-07T10:37:33;0.10;;;0.10;;
11533;SDS011;5823;50.588;8.462;2023-08-07T10:40:04;0.20;;;0.20;;
11533;SDS011;5823;50.588;8.462;2023-08-07T10:42:34;0.10;;;0.10;;
11533;SDS011;5823;50.588;8.462;2023-08-07T10:45:16;0.10;;;0.10;;
11533;SDS011;5823;50.588;8.462;2023-08-07T10:47:42;0.20;;;0.20;;
11533;SDS011;5823;50.588;8.462;2023-08-07T10:50:09;0.20;;;0.20;;
11533;SDS011;5823;50.588;8.462;2023-08-07T10:52:37;0.00;;;0.00;;
11533;SDS011;5823;50.588;8.462;2023-08-07T10:55:12;0.10;;;0.10;;
11533;SDS011;5823;50.588;8.462;2023-08-07T10:57:40;0.25;;;0.25;;
11533;SDS011;5823;50.588;8.462;2023-08-07T11:00:07;0.10;;;0.10;;
11533;SDS011;5823;50.588;8.462;2023-08-07T11:02:35;0.20;;;0.20;;
11533;SDS011;5823;50.588;8.462;2023-08-07T11:05:04;0.10;;;0.10;;
11533;SDS011;5823;50.588;8.462;2023-08-07T11:07:31;0.20;;;0.20;;
11533;SDS011;5823;50.588;8.462;2023-08-07T11:09:58;0.60;;;0.40;;
11533;SDS011;5823;50.588;8.462;2023-08-07T11:12:25;0.30;;;0.20;;
11533;SDS011;5823;50.588;8.462;2023-08-07T11:14:52;0.20;;;0.20;;
11533;SDS011;5823;50.588;8.462;2023-08-07T11:17:21;0.47;;;0.47;;
11533;SDS011;5823;50.588;8.462;2023-08-07T11:19:50;1.02;;;0.60;;
11533;SDS011;5823;50.588;8.462;2023-08-07T11:22:16;1.00;;;0.45;;
11533;SDS011;5823;50.588;8.462;2023-08-07T11:24:42;0.40;;;0.40;;
11533;SDS011;5823;50.588;8.462;2023-08-07T11:27:08;0.22;;;0.20;;
11533;SDS011;5823;50.588;8.462;2023-08-07T11:29:34;0.57;;;0.43;;
11533;SDS011;5823;50.588;8.462;2023-08-07T11:32:03;0.60;;;0.55;;
11533;SDS011;5823;50.588;8.462;2023-08-07T11:34:29;1.27;;;0.98;;
11533;SDS011;5823;50.588;8.462;2023-08-07T11:36:55;0.82;;;0.75;;
11533;SDS011;5823;50.588;8.462;2023-08-07T11:39:23;1.05;;;0.80;;
11533;SDS011;5823;50.588;8.462;2023-08-07T11:41:50;1.00;;;0.65;;
11533;SDS011;5823;50.588;8.462;2023-08-07T11:44:17;1.20;;;0.80;;
11533;SDS011;5823;50.588;8.462;2023-08-07T11:46:43;0.70;;;0.70;;
11533;SDS011;5823;50.588;8.462;2023-08-07T11:49:11;0.85;;;0.73;;
11533;SDS011;5823;50.588;8.462;2023-08-07T11:51:38;1.10;;;0.70;;
11533;SDS011;5823;50.588;8.462;2023-08-07T11:54:05;0.57;;;0.57;;
11533;SDS011;5823;50.588;8.462;2023-08-07T11:56:31;0.50;;;0.50;;
11533;SDS011;5823;50.588;8.462;2023-08-07T11:58:58;0.70;;;0.70;;
11533;SDS011;5823;50.588;8.462;2023-08-07T12:01:25;0.90;;;0.70;;
11533;SDS011;5823;50.588;8.462;2023-08-07T12:03:53;0.88;;;0.68;;
11533;SDS011;5823;50.588;8.462;2023-08-07T12:06:22;0.47;;;0.47;;
11533;SDS011;5823;50.588;8.462;2023-08-07T12:08:49;0.80;;;0.52;;
11533;SDS011;5823;50.588;8.462;2023-08-07T12:11:16;0.80;;;0.57;;
11533;SDS011;5823;50.588;8.462;2023-08-07T12:13:43;0.60;;;0.60;;
11533;SDS011;5823;50.588;8.462;2023-08-07T12:16:10;0.77;;;0.57;;
11533;SDS011;5823;50.588;8.462;2023-08-07T12:18:44;0.60;;;0.47;;
11533;SDS011;5823;50.588;8.462;2023-08-07T12:21:12;0.52;;;0.52;;
11533;SDS011;5823;50.588;8.462;2023-08-07T12:23:40;1.60;;;0.63;;
11533;SDS011;5823;50.588;8.462;2023-08-07T12:26:07;0.88;;;0.57;;
11533;SDS011;5823;50.588;8.462;2023-08-07T12:28:33;0.70;;;0.70;;
11533;SDS011;5823;50.588;8.462;2023-08-07T12:31:00;1.10;;;0.90;;
11533;SDS011;5823;50.588;8.462;2023-08-07T12:33:28;1.10;;;0.88;;
11533;SDS011;5823;50.588;8.462;2023-08-07T12:35:55;1.08;;;0.63;;
11533;SDS011;5823;50.588;8.462;2023-08-07T12:38:22;1.30;;;0.82;;
11533;SDS011;5823;50.588;8.462;2023-08-07T12:40:50;0.90;;;0.80;;
11533;SDS011;5823;50.588;8.462;2023-08-07T12:43:17;0.88;;;0.63;;
11533;SDS011;5823;50.588;8.462;2023-08-07T12:45:43;1.40;;;1.08;;
11533;SDS011;5823;50.588;8.462;2023-08-07T12:48:10;0.88;;;0.75;;
11533;SDS011;5823;50.588;8.462;2023-08-07T12:50:36;0.73;;;0.73;;
11533;SDS011;5823;50.588;8.462;2023-08-07T12:53:03;0.93;;;0.70;;
11533;SDS011;5823;50.588;8.462;2023-08-07T12:55:29;0.75;;;0.45;;
11533;SDS011;5823;50.588;8.462;2023-08-07T12:57:57;1.48;;;0.73;;
11533;SDS011;5823;50.588;8.462;2023-08-07T13:00:23;1.48;;;0.70;;
11533;SDS011;5823;50.588;8.462;2023-08-07T13:02:50;1.25;;;0.80;;
11533;SDS011;5823;50.588;8.462;2023-08-07T13:05:17;0.60;;;0.52;;
11533;SDS011;5823;50.588;8.462;2023-08-07T13:07:44;1.67;;;0.70;;
11533;SDS011;5823;50.588;8.462;2023-08-07T13:10:11;0.47;;;0.47;;
11533;SDS011;5823;50.588;8.462;2023-08-07T13:12:39;0.57;;;0.50;;
11533;SDS011;5823;50.588;8.462;2023-08-07T13:15:08;0.55;;;0.52;;
11533;SDS011;5823;50.588;8.462;2023-08-07T13:17:35;1.83;;;1.10;;
11533;SDS011;5823;50.588;8.462;2023-08-07T13:20:02;0.80;;;0.80;;
11533;SDS011;5823;50.588;8.462;2023-08-07T13:22:32;0.52;;;0.52;;
11533;SDS011;5823;50.588;8.462;2023-08-07T13:25:02;0.52;;;0.52;;
11533;SDS011;5823;50.588;8.462;2023-08-07T13:27:29;1.00;;;0.40;;
11533;SDS011;5823;50.588;8.462;2023-08-07T13:29:55;0.85;;;0.50;;
11533;SDS011;5823;50.588;8.462;2023-08-07T13:32:23;1.35;;;0.95;;
11533;SDS011;5823;50.588;8.462;2023-08-07T13:34:49;0.93;;;0.85;;
11533;SDS011;5823;50.588;8.462;2023-08-07T13:37:16;0.80;;;0.80;;
11533;SDS011;5823;50.588;8.462;2023-08-07T13:39:43;0.93;;;0.80;;
11533;SDS011;5823;50.588;8.462;2023-08-07T13:42:09;0.82;;;0.70;;
11533;SDS011;5823;50.588;8.462;2023-08-07T13:44:36;0.70;;;0.70;;
11533;SDS011;5823;50.588;8.462;2023-08-07T13:47:02;0.90;;;0.90;;
11533;SDS011;5823;50.588;8.462;2023-08-07T13:49:30;0.82;;;0.70;;
11533;SDS011;5823;50.588;8.462;2023-08-07T13:51:56;0.57;;;0.57;;
11533;SDS011;5823;50.588;8.462;2023-08-07T13:54:23;0.88;;;0.80;;
11533;SDS011;5823;50.588;8.462;2023-08-07T13:56:49;0.45;;;0.45;;
11533;SDS011;5823;50.588;8.462;2023-08-07T13:59:16;1.55;;;0.60;;
11533;SDS011;5823;50.588;8.462;2023-08-07T14:01:42;1.10;;;0.70;;
11533;SDS011;5823;50.588;8.462;2023-08-07T14:04:09;0.63;;;0.63;;
11533;SDS011;5823;50.588;8.462;2023-08-07T14:06:37;0.60;;;0.60;;
11533;SDS011;5823;50.588;8.462;2023-08-07T14:09:04;0.65;;;0.55;;
11533;SDS011;5823;50.588;8.462;2023-08-07T14:11:30;0.88;;;0.45;;
11533;SDS011;5823;50.588;8.462;2023-08-07T14:13:57;0.77;;;0.45;;
11533;SDS011;5823;50.588;8.462;2023-08-07T14:16:24;0.77;;;0.73;;
11533;SDS011;5823;50.588;8.462;2023-08-07T14:18:51;0.88;;;0.73;;
11533;SDS011;5823;50.588;8.462;2023-08-07T14:21:17;0.95;;;0.85;;
11533;SDS011;5823;50.588;8.462;2023-08-07T14:23:46;0.80;;;0.80;;
11533;SDS011;5823;50.588;8.462;2023-08-07T14:26:13;1.08;;;0.93;;
11533;SDS011;5823;50.588;8.462;2023-08-07T14:28:39;1.20;;;0.95;;
11533;SDS011;5823;50.588;8.462;2023-08-07T14:31:06;1.00;;;0.93;;
11533;SDS011;5823;50.588;8.462;2023-08-07T14:33:33;0.52;;;0.52;;
11533;SDS011;5823;50.588;8.462;2023-08-07T14:35:59;1.77;;;0.70;;
11533;SDS011;5823;50.588;8.462;2023-08-07T14:38:26;0.88;;;0.75;;
11533;SDS011;5823;50.588;8.462;2023-08-07T14:40:54;0.65;;;0.65;;
11533;SDS011;5823;50.588;8.462;2023-08-07T14:43:20;0.98;;;0.60;;
11533;SDS011;5823;50.588;8.462;2023-08-07T14:45:47;1.98;;;1.13;;
11533;SDS011;5823;50.588;8.462;2023-08-07T14:48:13;1.20;;;0.90;;
11533;SDS011;5823;50.588;8.462;2023-08-07T14:50:40;0.75;;;0.60;;
11533;SDS011;5823;50.588;8.462;2023-08-07T14:53:07;0.70;;;0.70;;
11533;SDS011;5823;50.588;8.462;2023-08-07T14:55:33;0.98;;;0.82;;
11533;SDS011;5823;50.588;8.462;2023-08-07T14:58:01;0.90;;;0.80;;
11533;SDS011;5823;50.588;8.462;2023-08-07T15:00:28;0.88;;;0.50;;
11533;SDS011;5823;50.588;8.462;2023-08-07T15:02:56;1.27;;;0.65;;
11533;SDS011;5823;50.588;8.462;2023-08-07T15:05:22;0.60;;;0.60;;
11533;SDS011;5823;50.588;8.462;2023-08-07T15:07:49;1.58;;;1.05;;
11533;SDS011;5823;50.588;8.462;2023-08-07T15:10:15;1.10;;;0.90;;
11533;SDS011;5823;50.588;8.462;2023-08-07T15:12:42;1.15;;;0.93;;
11533;SDS011;5823;50.588;8.462;2023-08-07T15:15:10;0.60;;;0.55;;
11533;SDS011;5823;50.588;8.462;2023-08-07T15:17:36;0.75;;;0.73;;